Time;durP1;ratioP1;P1;durP2;ratioP2;P2;SDS_P1;SDS_P2;PMS_P1;PMS_P2;Temp;Humidity;BMP_temperature;BMP_pressure;BME280_temperature;BME280_humidity;BME280_pressure;Samples;Min_cycle;Max_cycle;Signal;HPM_P1;HPM_P2
2023/08/12 00:00:12;;;;;;;11.13;10.00;;;21.10;99.90;;;;;;5014309;28;20528;-80
2023/08/12 00:02:40;;;;;;;8.10;7.43;;;21.10;99.90;;;;;;5013411;28;20803;-80
2023/08/12 00:05:10;;;;;;;6.70;6.10;;;21.10;99.90;;;;;;5013954;28;20481;-80
2023/08/12 00:07:37;;;;;;;7.17;6.53;;;21.10;99.90;;;;;;5013898;28;20475;-81
2023/08/12 00:10:05;;;;;;;6.10;5.60;;;21.10;99.90;;;;;;5013840;28;20473;-80
2023/08/12 00:12:33;;;;;;;6.07;5.57;;;21.00;99.90;;;;;;5013388;28;20544;-79
2023/08/12 00:15:00;;;;;;;6.23;5.73;;;21.00;99.90;;;;;;5013651;28;20464;-79
2023/08/12 00:17:27;;;;;;;5.17;4.70;;;21.00;99.90;;;;;;5013553;28;20544;-80
2023/08/12 00:19:59;;;;;;;6.13;5.67;;;21.00;99.90;;;;;;5013857;28;20469;-80
2023/08/12 00:22:27;;;;;;;7.40;5.17;;;20.90;99.90;;;;;;5012509;28;20476;-80
2023/08/12 00:24:54;;;;;;;4.90;4.50;;;20.90;99.90;;;;;;5013564;28;20493;-80
2023/08/12 00:27:21;;;;;;;4.37;4.00;;;20.90;99.90;;;;;;5013174;28;20493;-80
2023/08/12 00:29:49;;;;;;;5.00;4.70;;;20.80;99.90;;;;;;5013302;28;20483;-79
2023/08/12 00:32:16;;;;;;;4.60;4.30;;;20.80;99.90;;;;;;5013092;28;20507;-79
2023/08/12 00:34:43;;;;;;;4.67;4.37;;;20.80;99.90;;;;;;5012840;28;20472;-79
2023/08/12 00:37:10;;;;;;;5.63;5.23;;;20.70;99.90;;;;;;5013084;28;20591;-78
2023/08/12 00:39:39;;;;;;;5.83;5.30;;;20.70;99.90;;;;;;5013023;28;20499;-79
2023/08/12 00:42:06;;;;;;;6.47;5.87;;;20.70;99.90;;;;;;5013413;28;20563;-79
2023/08/12 00:44:33;;;;;;;10.67;9.53;;;20.60;99.90;;;;;;5012548;28;20535;-79
2023/08/12 00:47:00;;;;;;;11.87;10.23;;;20.60;99.90;;;;;;5013383;28;20473;-79
2023/08/12 00:49:28;;;;;;;8.40;7.33;;;20.60;99.90;;;;;;5012440;28;20567;-80
2023/08/12 00:51:55;;;;;;;7.07;6.50;;;20.60;99.90;;;;;;5013666;28;20954;-79
2023/08/12 00:54:23;;;;;;;7.00;6.30;;;20.60;99.90;;;;;;5013151;28;20473;-79
2023/08/12 00:56:53;;;;;;;5.87;5.27;;;20.60;99.90;;;;;;5012459;28;20473;-79
2023/08/12 00:59:21;;;;;;;8.17;7.37;;;20.60;99.90;;;;;;5012947;28;20483;-78
2023/08/12 01:01:49;;;;;;;5.27;4.77;;;20.60;99.90;;;;;;5012772;28;20579;-79
2023/08/12 01:04:16;;;;;;;6.67;6.07;;;20.60;99.90;;;;;;5013161;28;20472;-80
2023/08/12 01:06:44;;;;;;;44.70;40.37;;;20.60;99.90;;;;;;5012665;28;20489;-80
2023/08/12 01:09:11;;;;;;;18.30;16.47;;;20.60;99.90;;;;;;5012904;28;20576;-80
2023/08/12 01:11:47;;;;;;;7.37;6.67;;;20.70;99.90;;;;;;5012608;28;20556;-79
2023/08/12 01:14:23;;;;;;;6.33;5.73;;;20.70;99.90;;;;;;5012943;28;20499;-81
2023/08/12 01:16:57;;;;;;;6.50;5.90;;;20.70;99.90;;;;;;5016790;28;20453;-80
2023/08/12 01:19:31;;;;;;;5.47;5.07;;;20.70;99.90;;;;;;5016891;28;20898;-80
2023/08/12 01:22:01;;;;;;;7.93;7.07;;;20.70;99.90;;;;;;5016531;28;20453;-80
2023/08/12 01:24:36;;;;;;;5.50;5.00;;;20.70;99.90;;;;;;5017073;28;20540;-81
2023/08/12 01:27:03;;;;;;;6.33;5.83;;;20.70;99.90;;;;;;5016942;28;20795;-80
2023/08/12 01:29:31;;;;;;;8.03;7.33;;;20.70;99.90;;;;;;5016762;28;20479;-81
2023/08/12 01:32:08;;;;;;;6.20;5.70;;;20.70;99.90;;;;;;5016237;28;20552;-81
2023/08/12 01:34:43;;;;;;;6.87;6.27;;;20.70;99.90;;;;;;5016720;28;20472;-81
2023/08/12 01:37:14;;;;;;;11.20;10.13;;;20.70;99.90;;;;;;5015632;28;20543;-80
2023/08/12 01:39:43;;;;;;;7.30;6.60;;;20.70;99.90;;;;;;5016575;28;20477;-80
2023/08/12 01:42:11;;;;;;;6.83;6.23;;;20.70;99.90;;;;;;5016355;28;20461;-80
2023/08/12 01:44:39;;;;;;;7.47;6.10;;;20.70;99.90;;;;;;5016723;28;20477;-80
2023/08/12 01:47:09;;;;;;;5.90;5.40;;;20.70;99.90;;;;;;5015885;28;21041;-80
2023/08/12 01:49:36;;;;;;;4.37;4.07;;;20.70;99.90;;;;;;5016596;28;20515;-81
2023/08/12 01:52:03;;;;;;;7.80;6.60;;;20.70;99.90;;;;;;5015766;28;20469;-81
2023/08/12 01:54:33;;;;;;;4.50;4.17;;;20.70;99.90;;;;;;5016544;28;20563;-81
2023/08/12 01:57:05;;;;;;;6.47;5.80;;;20.70;99.90;;;;;;5015463;28;21025;-81
2023/08/12 01:59:34;;;;;;;6.33;5.73;;;20.70;99.90;;;;;;5016641;28;20499;-81
2023/08/12 02:02:01;;;;;;;5.77;5.30;;;20.70;99.90;;;;;;5015730;28;20561;-81
2023/08/12 02:04:28;;;;;;;5.40;4.90;;;20.60;99.90;;;;;;5005711;28;20494;-79
2023/08/12 02:06:55;;;;;;;6.20;5.70;;;20.60;99.90;;;;;;5015544;28;20531;-81
2023/08/12 02:09:22;;;;;;;5.20;4.80;;;20.70;99.90;;;;;;5016246;28;20472;-81
2023/08/12 02:11:49;;;;;;;6.67;6.07;;;20.60;99.90;;;;;;5017406;28;20535;-81
2023/08/12 02:14:17;;;;;;;6.27;5.70;;;20.60;99.90;;;;;;5016597;28;20469;-79
2023/08/12 02:16:44;;;;;;;5.80;5.40;;;20.60;99.90;;;;;;5016254;28;20997;-79
2023/08/12 02:19:11;;;;;;;4.70;4.40;;;20.60;99.90;;;;;;5011649;28;20548;-79
2023/08/12 02:21:38;;;;;;;50.77;45.73;;;20.60;99.90;;;;;;4996421;28;20537;-80
2023/08/12 02:24:06;;;;;;;26.40;23.70;;;20.60;99.90;;;;;;4995624;28;20470;-79
2023/08/12 02:26:32;;;;;;;13.17;12.03;;;20.60;99.90;;;;;;4995470;28;20489;-80
2023/08/12 02:28:59;;;;;;;9.17;8.27;;;20.60;99.90;;;;;;4995075;28;20508;-79
2023/08/12 02:31:28;;;;;;;9.27;8.37;;;20.70;99.90;;;;;;4995700;28;20553;-79
2023/08/12 02:33:55;;;;;;;5.30;4.90;;;20.70;99.90;;;;;;4994524;28;20524;-80
2023/08/12 02:36:22;;;;;;;8.73;6.10;;;20.70;99.90;;;;;;4995630;28;20469;-79
2023/08/12 02:38:48;;;;;;;5.83;5.23;;;20.60;99.90;;;;;;4995974;28;20976;-79
2023/08/12 02:41:15;;;;;;;4.53;4.23;;;20.60;99.90;;;;;;4995613;28;20553;-80
2023/08/12 02:43:42;;;;;;;5.27;4.87;;;20.60;99.90;;;;;;4995982;28;20466;-80
2023/08/12 02:46:12;;;;;;;4.07;3.77;;;20.60;99.90;;;;;;4995120;28;20863;-80
2023/08/12 02:48:41;;;;;;;5.20;4.80;;;20.70;99.90;;;;;;4995844;28;20561;-81
2023/08/12 02:51:07;;;;;;;5.80;5.40;;;20.60;99.90;;;;;;4995067;28;21035;-80
2023/08/12 02:53:34;;;;;;;5.97;5.57;;;20.60;99.90;;;;;;4995978;28;20501;-80
2023/08/12 02:56:01;;;;;;;8.47;7.60;;;20.60;99.90;;;;;;4995318;28;20484;-81
2023/08/12 02:58:28;;;;;;;7.07;6.47;;;20.60;99.90;;;;;;4995624;28;20461;-80
2023/08/12 03:00:55;;;;;;;5.90;5.43;;;20.60;99.90;;;;;;4995395;28;20470;-81
2023/08/12 03:03:22;;;;;;;5.23;4.93;;;20.60;99.90;;;;;;4995489;28;20524;-79
2023/08/12 03:05:51;;;;;;;7.17;6.60;;;20.60;99.90;;;;;;4993264;28;20877;-79
2023/08/12 03:08:18;;;;;;;7.57;6.93;;;20.60;99.90;;;;;;4994431;28;20485;-79
2023/08/12 03:10:47;;;;;;;6.00;5.40;;;20.60;99.90;;;;;;4995682;28;20476;-79
2023/08/12 03:13:16;;;;;;;10.37;9.47;;;20.60;99.90;;;;;;4994325;28;20485;-80
2023/08/12 03:15:43;;;;;;;7.60;6.80;;;20.60;99.90;;;;;;4995551;28;20560;-80
2023/08/12 03:18:10;;;;;;;6.80;6.10;;;20.60;99.90;;;;;;4994568;28;20872;-80
2023/08/12 03:20:38;;;;;;;5.43;4.90;;;20.60;99.90;;;;;;4995328;28;20528;-80
2023/08/12 03:23:06;;;;;;;6.00;5.50;;;20.60;99.90;;;;;;4995061;28;20509;-80
2023/08/12 03:25:33;;;;;;;6.57;5.70;;;20.60;99.90;;;;;;4994919;28;20777;-80
2023/08/12 03:28:00;;;;;;;6.83;5.37;;;20.60;99.90;;;;;;4995135;28;20565;-80
2023/08/12 03:30:27;;;;;;;6.10;4.87;;;20.60;99.90;;;;;;4994858;28;20765;-79
2023/08/12 03:32:54;;;;;;;5.00;4.70;;;20.60;99.90;;;;;;4995141;28;20502;-79
2023/08/12 03:35:21;;;;;;;6.13;5.37;;;20.60;99.90;;;;;;4994480;28;20488;-79
2023/08/12 03:37:48;;;;;;;5.70;5.20;;;20.60;99.90;;;;;;4994945;28;20480;-80
2023/08/12 03:40:16;;;;;;;6.83;6.23;;;20.50;99.90;;;;;;4995235;28;20470;-79
2023/08/12 03:42:43;;;;;;;7.47;6.77;;;20.50;99.90;;;;;;4996201;28;20553;-79
2023/08/12 03:45:11;;;;;;;5.77;5.37;;;20.50;99.90;;;;;;4984673;28;20482;-79
2023/08/12 03:47:38;;;;;;;6.70;5.33;;;20.50;99.90;;;;;;4995454;28;20488;-79
2023/08/12 03:50:07;;;;;;;5.60;4.93;;;20.40;99.90;;;;;;4995690;28;20605;-79
2023/08/12 03:52:34;;;;;;;6.20;5.57;;;20.50;99.90;;;;;;4995206;28;20468;-79
2023/08/12 03:55:00;;;;;;;4.90;4.60;;;20.50;99.90;;;;;;4994641;28;20501;-80
2023/08/12 03:57:29;;;;;;;5.40;5.00;;;20.50;99.90;;;;;;4994490;28;20996;-80
2023/08/12 03:59:56;;;;;;;7.60;6.37;;;20.50;99.90;;;;;;4995008;28;20557;-80
2023/08/12 04:02:22;;;;;;;7.13;6.40;;;20.40;99.90;;;;;;4994504;28;20466;-80
2023/08/12 04:04:49;;;;;;;5.40;5.10;;;20.50;99.90;;;;;;4994601;28;20496;-80
2023/08/12 04:07:16;;;;;;;5.50;5.00;;;20.40;99.90;;;;;;4994249;28;20553;-80
2023/08/12 04:09:43;;;;;;;6.10;5.50;;;20.40;99.90;;;;;;4994449;28;20564;-79
2023/08/12 04:12:10;;;;;;;6.00;5.40;;;20.40;99.90;;;;;;4994444;28;20509;-79
2023/08/12 04:14:40;;;;;;;6.53;6.03;;;20.40;99.90;;;;;;4993902;28;20544;-79
2023/08/12 04:17:07;;;;;;;4.70;4.40;;;20.40;99.90;;;;;;4994128;28;20477;-78
2023/08/12 04:19:34;;;;;;;5.70;5.20;;;20.40;99.90;;;;;;4994109;28;20472;-79
2023/08/12 04:22:01;;;;;;;5.10;4.80;;;20.40;99.90;;;;;;4994330;28;20470;-79
2023/08/12 04:24:28;;;;;;;5.50;5.10;;;20.40;99.90;;;;;;4993284;28;20867;-79
2023/08/12 04:26:55;;;;;;;5.80;4.97;;;20.50;99.90;;;;;;4994326;28;20560;-78
2023/08/12 04:29:22;;;;;;;5.20;4.83;;;20.50;99.90;;;;;;4993715;28;20995;-79
2023/08/12 04:31:52;;;;;;;8.60;5.17;;;20.50;99.90;;;;;;4994254;28;20553;-78
2023/08/12 04:34:21;;;;;;;7.47;5.87;;;20.50;99.90;;;;;;4993466;28;20828;-80
2023/08/12 04:36:47;;;;;;;6.87;4.60;;;20.50;99.90;;;;;;4993532;28;20469;-78
2023/08/12 04:39:19;;;;;;;5.97;5.47;;;20.40;99.90;;;;;;4993696;28;20508;-80
2023/08/12 04:41:46;;;;;;;6.33;5.47;;;20.40;99.90;;;;;;4994457;28;20473;-81
2023/08/12 04:44:13;;;;;;;6.20;5.70;;;20.50;99.90;;;;;;4993794;28;20533;-81
2023/08/12 04:46:40;;;;;;;5.97;5.47;;;20.60;99.90;;;;;;4993429;28;20466;-80
2023/08/12 04:49:08;;;;;;;4.30;3.90;;;20.60;99.90;;;;;;4994049;28;20561;-79
2023/08/12 04:51:39;;;;;;;4.73;4.33;;;20.60;99.90;;;;;;4997176;28;20812;-79
2023/08/12 04:54:07;;;;;;;7.23;4.70;;;20.60;99.90;;;;;;4997998;28;20481;-80
2023/08/12 04:56:34;;;;;;;4.47;4.07;;;20.60;99.90;;;;;;4997699;28;20474;-79
2023/08/12 04:59:01;;;;;;;5.33;4.90;;;20.70;99.90;;;;;;4997782;28;20484;-79
2023/08/12 05:01:28;;;;;;;5.77;5.27;;;20.70;99.90;;;;;;4997213;28;20504;-79
2023/08/12 05:03:55;;;;;;;5.03;4.73;;;20.80;99.90;;;;;;4997752;28;20473;-80
2023/08/12 05:06:24;;;;;;;5.57;4.80;;;20.70;99.90;;;;;;4996504;28;20478;-80
2023/08/12 05:08:51;;;;;;;4.83;4.40;;;20.80;99.90;;;;;;4997929;28;20964;-80
2023/08/12 05:11:18;;;;;;;4.83;4.43;;;20.80;99.90;;;;;;4997577;28;20516;-80
2023/08/12 05:13:44;;;;;;;8.17;7.37;;;20.80;99.90;;;;;;4997314;28;20485;-80
2023/08/12 05:16:11;;;;;;;6.53;5.87;;;20.90;99.90;;;;;;4997926;28;20470;-79
2023/08/12 05:18:38;;;;;;;5.60;5.03;;;21.00;99.90;;;;;;4997117;28;20465;-79
2023/08/12 05:21:05;;;;;;;5.47;5.07;;;21.00;99.90;;;;;;4996904;28;20474;-79
2023/08/12 05:23:34;;;;;;;5.13;4.73;;;21.10;99.90;;;;;;4997241;28;20470;-80
2023/08/12 05:26:01;;;;;;;4.80;4.30;;;21.20;99.90;;;;;;4997507;28;20501;-80
2023/08/12 05:28:30;;;;;;;4.40;3.90;;;21.20;99.90;;;;;;4996321;28;20560;-79
2023/08/12 05:30:57;;;;;;;4.63;4.30;;;21.30;99.90;;;;;;4997383;28;20981;-79
2023/08/12 05:33:24;;;;;;;4.40;4.10;;;21.40;99.90;;;;;;4997083;28;20470;-80
2023/08/12 05:35:51;;;;;;;5.50;3.77;;;21.40;99.90;;;;;;4996985;28;20477;-79
2023/08/12 05:38:18;;;;;;;4.57;4.27;;;21.60;99.90;;;;;;4997140;28;20470;-79
2023/08/12 05:40:47;;;;;;;4.90;4.50;;;21.70;99.90;;;;;;4996907;28;20454;-79
2023/08/12 05:43:14;;;;;;;7.07;6.37;;;21.70;99.90;;;;;;4996981;28;20982;-79
2023/08/12 05:45:40;;;;;;;9.40;6.67;;;21.80;99.90;;;;;;4995169;28;20478;-79
2023/08/12 05:48:09;;;;;;;5.30;4.80;;;21.90;99.90;;;;;;4997155;28;20470;-79
2023/08/12 05:50:36;;;;;;;4.33;3.93;;;22.00;99.90;;;;;;4996476;28;20470;-79
2023/08/12 05:53:03;;;;;;;4.90;4.50;;;22.00;99.90;;;;;;4997109;28;20944;-79
2023/08/12 05:55:30;;;;;;;4.50;4.20;;;22.00;99.90;;;;;;4996576;28;20474;-80
2023/08/12 05:57:58;;;;;;;5.33;4.83;;;22.00;99.90;;;;;;4996855;28;20957;-80
2023/08/12 06:00:25;;;;;;;5.50;4.90;;;22.10;99.90;;;;;;4995514;28;20478;-80
2023/08/12 06:02:52;;;;;;;7.50;5.50;;;22.10;99.90;;;;;;4996754;28;20469;-80
2023/08/12 06:05:19;;;;;;;4.67;4.27;;;22.10;99.90;;;;;;4996495;28;20509;-79
2023/08/12 06:07:49;;;;;;;4.90;4.50;;;22.20;99.90;;;;;;4995914;28;20453;-80
2023/08/12 06:10:16;;;;;;;5.40;4.97;;;22.30;99.90;;;;;;4996108;28;20556;-79
2023/08/12 06:12:46;;;;;;;6.30;4.67;;;22.30;99.90;;;;;;4996028;28;20473;-79
2023/08/12 06:15:14;;;;;;;4.60;4.17;;;22.40;99.90;;;;;;4996529;28;20482;-79
2023/08/12 06:17:41;;;;;;;4.67;4.20;;;22.40;99.90;;;;;;4996043;28;20480;-79
2023/08/12 06:20:09;;;;;;;4.70;4.13;;;22.40;99.90;;;;;;4996344;28;20476;-79
2023/08/12 06:22:36;;;;;;;4.93;4.53;;;22.40;99.90;;;;;;4995691;28;20552;-80
2023/08/12 06:25:03;;;;;;;4.80;4.50;;;22.40;99.90;;;;;;4995946;28;20557;-80
2023/08/12 06:27:30;;;;;;;5.97;5.47;;;22.50;99.90;;;;;;4995536;28;20536;-80
2023/08/12 06:29:57;;;;;;;4.70;4.30;;;22.50;99.90;;;;;;4996222;28;20777;-80
2023/08/12 06:32:46;;;;;;;6.90;5.20;;;22.60;99.90;;;;;;5001291;28;20606;-78
2023/08/12 06:35:14;;;;;;;5.83;5.23;;;22.60;99.90;;;;;;4997314;28;20474;-80
2023/08/12 06:37:41;;;;;;;4.67;4.37;;;22.70;99.90;;;;;;4995873;28;20935;-81
2023/08/12 06:40:09;;;;;;;5.80;5.30;;;22.80;99.90;;;;;;4996258;28;20465;-79
2023/08/12 06:42:36;;;;;;;7.77;6.23;;;22.80;99.90;;;;;;4995283;28;20548;-79
2023/08/12 06:45:03;;;;;;;6.60;6.00;;;22.90;99.90;;;;;;4996069;28;20469;-79
2023/08/12 06:47:31;;;;;;;6.63;5.97;;;22.90;99.90;;;;;;4995211;28;20502;-79
2023/08/12 06:49:59;;;;;;;6.93;6.23;;;22.90;99.90;;;;;;4995824;28;20975;-81
2023/08/12 06:52:26;;;;;;;7.30;6.40;;;23.00;99.90;;;;;;4994921;28;20462;-81
2023/08/12 06:54:56;;;;;;;6.20;5.70;;;23.00;99.90;;;;;;4995210;28;20553;-81
2023/08/12 06:57:23;;;;;;;5.37;4.90;;;23.10;99.90;;;;;;4995216;28;20998;-81
2023/08/12 06:59:50;;;;;;;7.30;6.60;;;23.10;99.90;;;;;;4995291;28;20973;-82
2023/08/12 07:02:17;;;;;;;6.73;6.03;;;23.30;99.90;;;;;;4995737;28;21046;-81
2023/08/12 07:04:50;;;;;;;5.07;4.60;;;23.30;99.90;;;;;;4981675;28;20485;-81
2023/08/12 07:07:19;;;;;;;7.30;6.70;;;23.40;99.90;;;;;;4985238;28;20498;-81
2023/08/12 07:09:46;;;;;;;6.93;6.23;;;23.40;99.90;;;;;;4995084;28;20544;-80
2023/08/12 07:12:13;;;;;;;8.77;8.07;;;23.50;99.90;;;;;;4993863;28;20507;-80
2023/08/12 07:14:42;;;;;;;7.90;5.03;;;23.60;99.90;;;;;;4995091;28;20569;-81
2023/08/12 07:17:09;;;;;;;8.90;7.93;;;23.60;99.90;;;;;;4993803;28;20498;-81
2023/08/12 07:19:36;;;;;;;8.40;7.70;;;23.70;99.90;;;;;;4995210;28;20470;-81
2023/08/12 07:22:06;;;;;;;7.10;6.40;;;23.80;99.90;;;;;;4995469;28;20548;-80
2023/08/12 07:24:35;;;;;;;6.33;5.83;;;23.80;99.90;;;;;;4994869;28;20458;-80
2023/08/12 07:27:02;;;;;;;5.53;5.03;;;23.90;99.90;;;;;;4995158;28;20524;-80
2023/08/12 07:29:28;;;;;;;6.77;4.73;;;24.00;99.90;;;;;;4994497;28;22806;-80
2023/08/12 07:31:55;;;;;;;9.10;6.70;;;24.00;99.90;;;;;;4994786;28;20532;-80
2023/08/12 07:34:22;;;;;;;7.70;5.50;;;24.10;99.90;;;;;;4986140;28;20482;-80
2023/08/12 07:36:49;;;;;;;6.97;6.27;;;24.20;99.90;;;;;;4995103;28;20474;-80
2023/08/12 07:39:19;;;;;;;7.17;6.60;;;24.30;99.90;;;;;;4994856;28;21041;-81
2023/08/12 07:41:50;;;;;;;8.80;8.10;;;24.30;99.90;;;;;;4995090;28;20520;-78
2023/08/12 07:44:17;;;;;;;6.43;5.83;;;24.50;99.90;;;;;;4994073;28;20984;-79
2023/08/12 07:46:44;;;;;;;6.17;5.67;;;24.50;99.90;;;;;;4995473;28;20549;-80
2023/08/12 07:49:11;;;;;;;9.53;8.83;;;24.50;99.90;;;;;;4994859;28;20503;-80
2023/08/12 07:51:38;;;;;;;15.50;14.00;;;24.60;99.90;;;;;;4994261;28;20787;-81
2023/08/12 07:54:06;;;;;;;9.90;9.10;;;24.60;99.90;;;;;;4995173;28;20520;-79
2023/08/12 07:56:33;;;;;;;13.67;12.53;;;24.70;99.90;;;;;;4994200;28;20473;-80
2023/08/12 07:59:02;;;;;;;17.33;15.80;;;24.70;99.90;;;;;;4995473;28;20505;-81
2023/08/12 08:01:30;;;;;;;17.00;15.47;;;24.70;99.90;;;;;;4994776;28;20478;-82
2023/08/12 08:04:01;;;;;;;7.90;7.30;;;24.70;99.90;;;;;;4995179;28;21012;-79
2023/08/12 08:06:28;;;;;;;7.43;6.83;;;24.70;99.90;;;;;;4994005;28;20478;-80
2023/08/12 08:08:56;;;;;;;7.37;6.77;;;24.70;99.90;;;;;;4995011;28;20462;-79
2023/08/12 08:11:24;;;;;;;7.60;6.40;;;24.60;99.90;;;;;;4994282;28;20477;-80
2023/08/12 08:13:51;;;;;;;10.20;9.30;;;24.60;99.90;;;;;;4994209;28;20521;-79
2023/08/12 08:16:23;;;;;;;9.33;8.20;;;24.60;99.90;;;;;;4994003;28;20477;-80
2023/08/12 08:18:50;;;;;;;7.03;6.43;;;24.60;99.90;;;;;;4994335;28;20794;-81
2023/08/12 08:21:17;;;;;;;7.43;6.70;;;24.60;99.90;;;;;;4993959;28;20536;-79
2023/08/12 08:23:44;;;;;;;10.23;9.30;;;24.60;99.90;;;;;;4994228;28;20542;-80
2023/08/12 08:26:11;;;;;;;7.03;6.43;;;24.50;99.90;;;;;;4993605;28;20856;-78
2023/08/12 08:28:40;;;;;;;10.10;9.20;;;24.50;99.90;;;;;;4994209;28;20533;-80
2023/08/12 08:31:12;;;;;;;12.20;11.10;;;24.50;99.90;;;;;;4983818;28;20653;-81
2023/08/12 08:33:40;;;;;;;12.80;11.70;;;24.50;99.90;;;;;;4993419;28;20481;-81
2023/08/12 08:36:07;;;;;;;6.97;6.30;;;24.50;99.90;;;;;;4994522;28;20551;-80
2023/08/12 08:38:43;;;;;;;9.10;8.30;;;24.40;99.90;;;;;;4981624;28;20486;-78
2023/08/12 08:41:12;;;;;;;10.00;9.10;;;24.30;99.90;;;;;;4993036;28;20886;-80
2023/08/12 08:43:43;;;;;;;11.13;10.13;;;24.30;99.90;;;;;;4988306;28;20572;-80
2023/08/12 08:46:11;;;;;;;10.70;9.80;;;24.20;99.90;;;;;;5003281;28;20475;-79
2023/08/12 08:48:40;;;;;;;11.90;10.80;;;24.20;99.90;;;;;;4994094;28;20470;-79
2023/08/12 08:51:09;;;;;;;9.27;8.47;;;24.10;99.90;;;;;;4993420;28;20511;-79
2023/08/12 08:53:39;;;;;;;11.60;10.40;;;24.00;99.90;;;;;;4993934;28;20458;-82
2023/08/12 08:56:06;;;;;;;13.53;10.37;;;23.90;99.90;;;;;;4993989;28;20537;-79
2023/08/12 08:58:41;;;;;;;10.63;9.63;;;23.90;99.90;;;;;;4993395;28;20846;-81
2023/08/12 09:01:10;;;;;;;10.50;9.60;;;23.90;99.90;;;;;;4993951;28;20476;-79
2023/08/12 09:03:39;;;;;;;10.60;9.20;;;23.80;99.90;;;;;;4993519;28;20477;-79
2023/08/12 09:06:08;;;;;;;8.13;6.77;;;23.80;99.90;;;;;;4993494;28;20474;-82
2023/08/12 09:08:39;;;;;;;13.93;11.40;;;23.70;99.90;;;;;;4992899;28;20454;-79
2023/08/12 09:11:12;;;;;;;12.03;10.67;;;23.60;99.90;;;;;;4993781;28;20493;-80
2023/08/12 09:13:39;;;;;;;12.33;11.17;;;23.60;99.90;;;;;;4993608;28;20462;-80
2023/08/12 09:16:09;;;;;;;12.47;11.37;;;23.60;99.90;;;;;;4993515;28;20473;-78
2023/08/12 09:18:36;;;;;;;8.57;7.57;;;23.60;99.90;;;;;;4993457;28;20465;-78
2023/08/12 09:21:04;;;;;;;11.90;10.90;;;23.60;99.90;;;;;;4993590;28;20490;-78
2023/08/12 09:23:38;;;;;;;12.93;11.83;;;23.60;99.90;;;;;;4993112;28;20470;-78
2023/08/12 09:26:19;;;;;;;14.37;13.10;;;23.60;99.90;;;;;;4993608;28;20971;-80
2023/08/12 09:28:47;;;;;;;14.47;13.17;;;23.70;99.90;;;;;;4993749;28;20540;-80
2023/08/12 09:31:24;;;;;;;17.40;15.80;;;23.70;99.90;;;;;;4993811;28;20478;-81
2023/08/12 09:33:52;;;;;;;12.97;11.67;;;23.70;99.90;;;;;;4993143;28;20476;-81
2023/08/12 09:36:19;;;;;;;6.40;5.90;;;23.80;99.90;;;;;;4994820;28;20975;-80
2023/08/12 09:38:48;;;;;;;8.33;7.63;;;23.80;99.90;;;;;;4996718;28;20532;-81
2023/08/12 09:41:16;;;;;;;6.90;6.40;;;23.90;99.90;;;;;;4985867;28;20493;-81
2023/08/12 09:43:44;;;;;;;6.57;6.03;;;24.00;99.90;;;;;;4985908;28;20493;-81
2023/08/12 09:46:14;;;;;;;6.70;5.97;;;24.10;99.90;;;;;;4988152;28;20508;-81
2023/08/12 09:48:41;;;;;;;8.80;8.00;;;24.20;99.90;;;;;;4996424;28;20477;-81
2023/08/12 09:51:11;;;;;;;7.80;7.10;;;24.30;99.90;;;;;;4996512;28;20512;-81
2023/08/12 09:53:37;;;;;;;11.10;10.10;;;24.30;99.90;;;;;;4996571;28;20541;-81
2023/08/12 09:56:08;;;;;;;8.80;7.90;;;24.30;99.90;;;;;;4996178;28;20991;-81
2023/08/12 09:58:44;;;;;;;8.07;7.40;;;24.40;99.90;;;;;;4996498;28;20480;-81
2023/08/12 10:01:13;;;;;;;9.77;8.93;;;24.40;99.90;;;;;;4996487;28;20504;-79
2023/08/12 10:03:42;;;;;;;10.30;9.23;;;24.40;99.90;;;;;;4997021;28;20458;-81
2023/08/12 10:06:09;;;;;;;10.40;9.50;;;24.50;99.90;;;;;;4995864;28;20458;-81
2023/08/12 10:08:36;;;;;;;13.13;11.93;;;24.50;99.90;;;;;;4996537;28;20462;-79
2023/08/12 10:11:04;;;;;;;13.80;12.53;;;24.50;99.90;;;;;;4996082;28;20820;-79
2023/08/12 10:13:33;;;;;;;9.67;8.87;;;24.50;99.90;;;;;;4996549;28;21031;-79
2023/08/12 10:16:00;;;;;;;9.67;6.17;;;24.60;99.90;;;;;;4995747;28;20556;-79
2023/08/12 10:18:29;;;;;;;7.00;6.07;;;24.60;99.90;;;;;;4996420;28;20462;-79
2023/08/12 10:20:58;;;;;;;5.97;5.47;;;24.60;99.90;;;;;;4995514;28;20470;-79
2023/08/12 10:23:26;;;;;;;10.20;9.20;;;24.60;99.90;;;;;;4996515;28;20458;-80
2023/08/12 10:25:55;;;;;;;7.50;6.77;;;24.70;99.90;;;;;;4995845;28;20832;-79
2023/08/12 10:28:23;;;;;;;8.80;8.10;;;24.70;99.90;;;;;;4996081;28;20494;-80
2023/08/12 10:30:52;;;;;;;10.50;9.70;;;24.80;99.90;;;;;;4995684;28;20469;-79
2023/08/12 10:33:19;;;;;;;6.90;6.30;;;24.80;99.90;;;;;;4995925;28;20523;-79
2023/08/12 10:35:49;;;;;;;7.10;6.50;;;24.80;99.90;;;;;;4995711;28;20543;-79
2023/08/12 10:38:19;;;;;;;7.03;6.53;;;24.90;99.90;;;;;;4995488;28;20469;-78
2023/08/12 10:40:46;;;;;;;9.40;8.60;;;25.00;99.90;;;;;;4996142;28;20465;-81
2023/08/12 10:43:14;;;;;;;7.50;6.67;;;25.00;99.90;;;;;;4995675;28;20466;-80
2023/08/12 10:45:49;;;;;;;7.63;6.87;;;25.10;99.90;;;;;;4995872;28;20477;-80
2023/08/12 10:48:24;;;;;;;6.17;5.57;;;25.20;99.90;;;;;;4993824;28;20596;-80
2023/08/12 10:50:57;;;;;;;7.83;6.30;;;25.20;99.90;;;;;;4995771;28;20497;-80
2023/08/12 10:53:29;;;;;;;6.17;5.63;;;25.20;99.90;;;;;;4995640;28;20469;-82
2023/08/12 10:55:58;;;;;;;8.63;7.97;;;25.30;99.90;;;;;;4995698;28;20473;-78
2023/08/12 10:58:29;;;;;;;11.37;10.37;;;25.40;99.90;;;;;;4995722;28;20450;-79
2023/08/12 11:00:57;;;;;;;10.73;9.77;;;25.40;99.90;;;;;;4995315;28;20469;-78
2023/08/12 11:03:25;;;;;;;8.50;7.80;;;25.40;99.90;;;;;;4994944;28;20488;-79
2023/08/12 11:05:55;;;;;;;7.87;7.37;;;25.50;99.90;;;;;;4995319;28;20863;-79
2023/08/12 11:08:26;;;;;;;8.73;8.03;;;25.40;99.90;;;;;;4994852;28;20455;-80
2023/08/12 11:10:57;;;;;;;12.00;10.87;;;25.40;99.90;;;;;;4995520;28;20541;-78
2023/08/12 11:13:28;;;;;;;11.27;10.37;;;25.40;99.90;;;;;;4994909;28;20470;-80
2023/08/12 11:16:07;;;;;;;12.13;11.00;;;25.40;99.90;;;;;;4994980;28;20558;-79
2023/08/12 11:18:36;;;;;;;11.90;11.00;;;25.30;99.90;;;;;;4995181;28;20549;-81
2023/08/12 11:21:05;;;;;;;10.77;9.67;;;25.30;99.90;;;;;;4994831;28;20467;-80
2023/08/12 11:23:31;;;;;;;12.77;11.50;;;25.20;99.90;;;;;;4994846;28;20446;-79
2023/08/12 11:25:59;;;;;;;11.30;10.50;;;25.20;99.90;;;;;;4994993;28;20470;-80
2023/08/12 11:28:26;;;;;;;11.50;10.43;;;25.20;99.90;;;;;;4994521;28;20466;-79
2023/08/12 11:30:54;;;;;;;7.87;7.23;;;25.20;99.90;;;;;;4998385;28;20535;-80
2023/08/12 11:33:21;;;;;;;11.03;9.77;;;25.20;99.90;;;;;;4995060;28;20970;-80
2023/08/12 11:35:50;;;;;;;12.97;11.93;;;25.30;99.90;;;;;;4994595;28;20478;-79
2023/08/12 11:38:17;;;;;;;9.20;8.30;;;25.20;99.90;;;;;;4994877;28;20884;-81
2023/08/12 11:40:44;;;;;;;9.90;7.77;;;25.20;99.90;;;;;;4995017;28;20498;-80
2023/08/12 11:43:11;;;;;;;11.33;10.43;;;25.20;99.90;;;;;;4994037;28;20481;-80
2023/08/12 11:45:44;;;;;;;11.80;10.80;;;25.20;99.90;;;;;;4994659;28;20497;-80
2023/08/12 11:48:12;;;;;;;14.13;13.00;;;25.20;99.90;;;;;;4994249;28;20481;-81
2023/08/12 11:50:40;;;;;;;10.07;9.07;;;25.10;99.90;;;;;;4994820;28;20812;-80
2023/08/12 11:53:09;;;;;;;11.37;10.57;;;25.00;99.90;;;;;;4975605;28;20482;-80
2023/08/12 11:55:36;;;;;;;15.03;13.83;;;25.00;99.90;;;;;;4993985;28;20474;-80
2023/08/12 11:58:03;;;;;;;9.00;8.10;;;24.90;99.90;;;;;;4993944;28;20550;-80
2023/08/12 12:00:30;;;;;;;9.03;7.97;;;24.80;99.90;;;;;;4994362;28;20478;-80
2023/08/12 12:02:57;;;;;;;10.40;9.60;;;24.80;99.90;;;;;;4994729;28;20541;-80
2023/08/12 12:05:27;;;;;;;13.80;12.50;;;24.80;99.90;;;;;;4993936;28;20478;-80
2023/08/12 12:07:57;;;;;;;14.03;12.83;;;24.70;99.90;;;;;;4994507;28;20997;-80
2023/08/12 12:10:30;;;;;;;15.10;13.80;;;24.70;99.90;;;;;;4993555;28;20477;-80
2023/08/12 12:12:58;;;;;;;12.57;11.47;;;24.60;99.90;;;;;;4994283;28;20552;-80
2023/08/12 12:15:43;;;;;;;11.47;10.57;;;24.60;99.90;;;;;;4983217;28;20476;-79
2023/08/12 12:18:12;;;;;;;13.37;12.37;;;24.60;99.90;;;;;;4994374;28;20457;-81
2023/08/12 12:23:28;;;;;;;9.20;8.40;;;24.50;99.90;;;;;;4994246;28;20803;-80
2023/08/12 12:26:01;;;;;;;10.73;9.73;;;24.50;99.90;;;;;;4993768;28;20943;-79
2023/08/12 12:28:32;;;;;;;13.80;12.37;;;24.50;99.90;;;;;;4993903;28;20989;-79
2023/08/12 12:30:59;;;;;;;12.40;11.40;;;24.40;99.90;;;;;;4993902;28;20458;-81
2023/08/12 12:33:26;;;;;;;13.43;12.30;;;24.40;99.90;;;;;;4994034;28;20548;-81
2023/08/12 12:35:53;;;;;;;11.50;10.60;;;24.40;99.90;;;;;;4992931;28;20488;-80
2023/08/12 12:38:20;;;;;;;7.73;7.00;;;24.30;99.90;;;;;;4993859;28;20561;-80
2023/08/12 12:40:47;;;;;;;6.07;5.57;;;24.40;99.90;;;;;;4993479;28;20528;-81
2023/08/12 12:43:17;;;;;;;7.67;6.90;;;24.40;99.90;;;;;;4994038;28;20545;-80
2023/08/12 12:45:44;;;;;;;9.00;8.30;;;24.50;99.90;;;;;;4993353;28;20469;-78
2023/08/12 12:48:14;;;;;;;9.13;8.33;;;24.50;99.90;;;;;;4994056;28;20780;-80
2023/08/12 12:50:40;;;;;;;8.37;7.67;;;24.50;99.90;;;;;;4993449;28;20497;-80